Time;durP1;ratioP1;P1;durP2;ratioP2;P2;SDS_P1;SDS_P2;PMS_P1;PMS_P2;Temp;Humidity;BMP_temperature;BMP_pressure;BME280_temperature;BME280_humidity;BME280_pressure;Samples;Min_cycle;Max_cycle;Signal;HPM_P1;HPM_P2
2023/12/25 00:00:07;;;;;;;14.80;6.00;;;;;;;4.19;79.25;97368.80;108751;1253;94355;-73
2023/12/25 00:02:55;;;;;;;14.70;5.60;;;;;;;4.17;79.45;97361.90;108672;1253;113424;-72
2023/12/25 00:05:23;;;;;;;15.10;6.00;;;;;;;4.15;79.68;97366.42;108733;1253;95465;-73
2023/12/25 00:07:51;;;;;;;14.50;6.00;;;;;;;4.15;79.44;97377.33;108617;1256;107664;-73
2023/12/25 00:10:20;;;;;;;13.70;5.50;;;;;;;4.15;79.52;97378.54;108672;1253;94310;-72
2023/12/25 00:12:47;;;;;;;15.10;6.00;;;;;;;4.15;79.48;97378.04;108771;1253;94344;-73
2023/12/25 00:15:15;;;;;;;15.90;6.50;;;;;;;4.13;79.90;97375.52;108714;1253;109916;-73
2023/12/25 00:17:43;;;;;;;13.10;6.00;;;;;;;4.11;79.74;97378.63;108524;1253;94629;-73
2023/12/25 00:20:15;;;;;;;14.70;5.70;;;;;;;4.11;79.74;97381.66;108515;1257;107559;-73
2023/12/25 00:22:43;;;;;;;15.00;6.00;;;;;;;4.11;79.86;97382.38;108633;1254;94862;-72
2023/12/25 00:25:11;;;;;;;13.10;5.40;;;;;;;4.10;79.66;97394.31;108659;1253;94736;-72
2023/12/25 00:27:39;;;;;;;17.40;6.60;;;;;;;4.11;79.56;97401.61;108735;1252;109737;-71
2023/12/25 00:30:07;;;;;;;15.50;6.30;;;;;;;4.12;80.03;97394.00;108795;1252;95482;-72
2023/12/25 00:32:37;;;;;;;14.50;5.70;;;;;;;4.12;80.06;97395.80;108733;1252;105615;-71
2023/12/25 00:35:05;;;;;;;15.50;6.20;;;;;;;4.12;79.98;97394.38;108448;1259;94651;-73
2023/12/25 00:37:33;;;;;;;15.00;5.80;;;;;;;4.13;79.68;97401.16;108701;1254;94269;-73
2023/12/25 00:40:01;;;;;;;14.40;5.80;;;;;;;4.14;79.75;97395.79;108634;1253;109895;-73
2023/12/25 00:42:29;;;;;;;14.10;6.50;;;;;;;4.15;79.93;97396.77;108643;1252;95370;-72
2023/12/25 00:44:57;;;;;;;13.40;5.30;;;;;;;4.17;79.58;97399.98;108571;1254;107653;-72
2023/12/25 00:47:25;;;;;;;13.20;4.90;;;;;;;4.22;79.42;97401.88;108388;1260;94730;-72
2023/12/25 00:49:53;;;;;;;12.90;5.70;;;;;;;4.26;79.38;97385.14;108735;1253;94298;-72
2023/12/25 00:52:21;;;;;;;15.70;5.60;;;;;;;4.29;79.34;97395.95;108771;1252;109906;-73
2023/12/25 00:54:48;;;;;;;13.30;5.40;;;;;;;4.32;79.47;97401.15;108790;1254;94791;-73
2023/12/25 00:57:16;;;;;;;14.80;6.00;;;;;;;4.35;79.49;97401.30;108684;1252;107985;-73
2023/12/25 00:59:46;;;;;;;15.50;6.10;;;;;;;4.38;79.43;97399.52;108752;1252;94219;-72
2023/12/25 01:02:14;;;;;;;11.50;4.80;;;;;;;4.40;79.61;97397.07;108722;1252;94600;-73
2023/12/25 01:04:42;;;;;;;14.10;5.50;;;;;;;4.42;79.52;97385.14;108655;1255;109638;-73
2023/12/25 01:07:10;;;;;;;12.80;5.20;;;;;;;4.46;79.72;97369.27;108763;1252;94322;-73
2023/12/25 01:09:40;;;;;;;11.20;4.70;;;;;;;4.50;79.66;97376.73;108680;1252;107521;-73
2023/12/25 01:12:09;;;;;;;10.10;4.60;;;;;;;4.51;79.86;97370.43;108727;1252;94281;-72
2023/12/25 01:14:37;;;;;;;11.80;4.70;;;;;;;4.54;79.61;97374.98;108761;1252;94284;-73
2023/12/25 01:17:05;;;;;;;12.90;4.60;;;;;;;4.58;79.58;97369.55;108721;1252;109909;-73
2023/12/25 01:19:33;;;;;;;12.00;4.80;;;;;;;4.62;80.10;97365.75;108711;1252;95565;-73
2023/12/25 01:22:01;;;;;;;11.00;4.70;;;;;;;4.65;80.01;97363.82;108703;1253;107639;-72
2023/12/25 01:24:29;;;;;;;15.40;5.90;;;;;;;4.67;80.66;97352.05;108765;1253;94360;-73
2023/12/25 01:26:57;;;;;;;15.40;5.30;;;;;;;4.69;80.47;97355.75;108730;1253;94310;-73
2023/12/25 01:29:25;;;;;;;11.50;5.20;;;;;;;4.71;80.37;97351.94;108521;1252;110105;-73
2023/12/25 01:31:53;;;;;;;11.10;4.70;;;;;;;4.73;80.59;97356.88;108583;1252;95281;-73
2023/12/25 01:34:20;;;;;;;12.40;5.00;;;;;;;4.75;80.46;97364.79;108695;1253;107678;-73
2023/12/25 01:36:48;;;;;;;13.30;5.20;;;;;;;4.78;80.06;97367.73;108737;1252;94263;-73
2023/12/25 01:39:16;;;;;;;10.80;4.70;;;;;;;4.82;80.32;97369.91;108776;1252;94649;-73
2023/12/25 01:41:44;;;;;;;8.30;4.20;;;;;;;4.85;80.28;97366.89;108673;1253;110013;-73
2023/12/25 01:44:12;;;;;;;11.00;4.50;;;;;;;4.87;80.23;97363.55;108747;1252;95604;-73
2023/12/25 01:46:49;;;;;;;9.80;4.00;;;;;;;4.91;80.32;97364.33;108721;1255;107706;-73
2023/12/25 01:49:17;;;;;;;10.00;4.50;;;;;;;4.94;80.67;97364.23;108743;1252;94402;-75
2023/12/25 01:51:45;;;;;;;12.80;4.40;;;;;;;4.99;80.38;97364.56;108697;1252;94548;-73
2023/12/25 01:54:13;;;;;;;8.40;3.50;;;;;;;5.05;80.28;97366.59;108850;1252;109871;-73
2023/12/25 01:56:42;;;;;;;9.50;4.40;;;;;;;5.10;80.20;97362.31;108756;1253;94758;-73
2023/12/25 01:59:10;;;;;;;7.70;3.90;;;;;;;5.17;80.51;97361.41;108669;1252;107698;-73
2023/12/25 02:01:38;;;;;;;6.60;3.30;;;;;;;5.26;80.28;97358.13;108720;1252;94762;-72
2023/12/25 02:04:06;;;;;;;7.20;3.10;;;;;;;5.32;80.29;97357.98;108774;1255;94203;-73
2023/12/25 02:06:35;;;;;;;9.10;3.40;;;;;;;5.39;80.27;97363.21;108762;1257;107881;-73
2023/12/25 02:09:03;;;;;;;8.80;3.50;;;;;;;5.46;80.31;97361.67;108559;1253;95457;-72
2023/12/25 02:11:31;;;;;;;5.50;3.30;;;;;;;5.54;80.31;97358.05;108711;1254;107247;-73
2023/12/25 02:14:01;;;;;;;6.70;3.10;;;;;;;5.59;80.48;97350.95;108704;1254;94526;-73
2023/12/25 02:16:29;;;;;;;6.90;3.20;;;;;;;5.65;80.29;97355.38;108723;1254;94561;-73
2023/12/25 02:18:58;;;;;;;7.90;3.60;;;;;;;5.68;80.25;97350.22;108707;1253;110511;-72
2023/12/25 02:21:26;;;;;;;7.40;3.70;;;;;;;5.71;80.31;97342.74;108730;1253;95369;-73
2023/12/25 02:23:58;;;;;;;8.30;3.60;;;;;;;5.74;80.29;97341.59;108716;1254;107636;-73
2023/12/25 02:26:27;;;;;;;9.30;3.40;;;;;;;5.77;80.20;97338.77;108662;1253;94329;-73
2023/12/25 02:28:55;;;;;;;10.20;4.00;;;;;;;5.79;80.26;97340.77;108748;1253;94280;-73
2023/12/25 02:31:23;;;;;;;9.10;4.10;;;;;;;5.81;80.29;97337.95;108712;1253;109861;-72
2023/12/25 02:33:51;;;;;;;6.50;3.00;;;;;;;5.84;80.05;97339.31;108709;1255;95386;-73
2023/12/25 02:36:19;;;;;;;7.30;3.10;;;;;;;5.87;80.42;97338.20;108723;1254;107605;-73
2023/12/25 02:38:47;;;;;;;5.70;3.00;;;;;;;5.89;80.27;97336.77;108734;1254;94242;-72
2023/12/25 02:41:15;;;;;;;6.00;2.90;;;;;;;5.92;80.25;97344.61;108711;1253;94336;-72
2023/12/25 02:43:43;;;;;;;4.70;2.90;;;;;;;5.94;80.25;97344.59;108550;1253;109689;-73
2023/12/25 02:46:11;;;;;;;5.70;2.60;;;;;;;5.97;80.21;97347.17;108749;1253;95609;-73
2023/12/25 02:48:39;;;;;;;7.50;3.70;;;;;;;6.00;80.34;97347.86;108736;1253;107351;-70
2023/12/25 02:51:07;;;;;;;5.30;2.60;;;;;;;6.05;80.50;97347.45;108713;1256;94557;-71
2023/12/25 02:53:35;;;;;;;6.60;2.70;;;;;;;6.09;80.53;97340.27;108781;1256;94510;-71
2023/12/25 02:56:04;;;;;;;6.70;2.60;;;;;;;6.13;80.40;97336.43;108710;1252;109869;-70
2023/12/25 02:58:32;;;;;;;5.50;2.60;;;;;;;6.18;80.36;97345.05;108673;1255;95233;-70
2023/12/25 03:00:59;;;;;;;6.30;2.70;;;;;;;6.22;80.49;97348.53;108800;1254;107538;-70
2023/12/25 03:03:27;;;;;;;3.70;2.00;;;;;;;6.27;80.56;97335.99;108711;1253;95386;-70
2023/12/25 03:05:55;;;;;;;5.60;2.20;;;;;;;6.34;80.69;97340.14;108792;1253;94214;-70
2023/12/25 03:08:24;;;;;;;3.70;2.20;;;;;;;6.40;80.62;97341.59;108753;1254;110089;-71
2023/12/25 03:10:52;;;;;;;3.40;2.10;;;;;;;6.47;80.51;97342.98;108716;1256;95525;-70
2023/12/25 03:13:19;;;;;;;2.60;1.70;;;;;;;6.53;80.70;97340.40;108787;1254;107077;-70
2023/12/25 03:15:47;;;;;;;3.20;1.90;;;;;;;6.57;80.77;97336.85;108749;1253;94307;-70
2023/12/25 03:18:15;;;;;;;6.10;2.30;;;;;;;6.62;80.73;97340.67;108758;1253;94537;-70
2023/12/25 03:20:44;;;;;;;2.70;1.70;;;;;;;6.66;80.74;97348.98;108713;1254;110959;-70
2023/12/25 03:23:12;;;;;;;4.50;2.10;;;;;;;6.72;80.53;97356.79;108797;1256;95245;-70
2023/12/25 03:25:40;;;;;;;2.70;1.80;;;;;;;6.75;80.44;97350.17;108758;1253;106941;-70
2023/12/25 03:28:08;;;;;;;3.60;1.90;;;;;;;6.78;80.58;97354.15;108687;1253;94200;-70
2023/12/25 03:30:35;;;;;;;3.10;1.70;;;;;;;6.82;80.57;97362.46;108767;1253;94413;-71
2023/12/25 03:33:03;;;;;;;3.50;1.60;;;;;;;6.83;80.59;97368.65;108696;1254;109837;-70
2023/12/25 03:35:31;;;;;;;4.30;2.00;;;;;;;6.87;80.57;97368.17;108690;1254;96280;-71
2023/12/25 03:38:00;;;;;;;5.90;1.90;;;;;;;6.91;80.65;97368.76;108700;1254;108176;-71
2023/12/25 03:40:28;;;;;;;3.40;1.80;;;;;;;6.93;80.57;97362.59;108693;1253;94759;-70
2023/12/25 03:42:59;;;;;;;5.00;1.90;;;;;;;6.96;80.71;97351.57;108658;1253;94353;-71
2023/12/25 03:45:26;;;;;;;4.70;2.10;;;;;;;7.00;80.89;97349.66;108762;1254;109957;-70
2023/12/25 03:47:54;;;;;;;3.80;1.80;;;;;;;7.04;80.57;97342.45;108725;1254;95491;-70
2023/12/25 03:50:23;;;;;;;3.10;1.60;;;;;;;7.05;80.59;97338.83;108685;1253;107034;-73
2023/12/25 03:52:51;;;;;;;2.80;1.50;;;;;;;7.06;80.72;97333.63;108707;1253;94383;-72
2023/12/25 03:55:18;;;;;;;4.00;2.00;;;;;;;7.08;80.88;97331.86;108686;1253;94252;-72
2023/12/25 03:57:46;;;;;;;2.40;1.50;;;;;;;7.11;80.76;97333.54;108704;1254;109939;-72
2023/12/25 04:00:15;;;;;;;2.70;1.60;;;;;;;7.12;80.75;97337.51;108752;1254;94842;-72
2023/12/25 04:02:42;;;;;;;3.30;1.50;;;;;;;7.14;80.80;97335.18;108652;1254;107621;-72
2023/12/25 04:05:11;;;;;;;5.90;1.90;;;;;;;7.18;80.71;97341.21;108566;1253;94316;-73
2023/12/25 04:07:38;;;;;;;4.80;2.30;;;;;;;7.21;80.75;97343.26;108753;1253;94611;-72
2023/12/25 04:10:06;;;;;;;4.90;2.20;;;;;;;7.25;80.72;97339.98;108729;1254;109529;-73
2023/12/25 04:12:34;;;;;;;2.80;1.40;;;;;;;7.29;80.73;97343.85;108768;1253;95285;-74
2023/12/25 04:15:05;;;;;;;4.40;1.90;;;;;;;7.32;80.65;97340.92;108654;1253;107499;-72
2023/12/25 04:17:34;;;;;;;4.80;2.20;;;;;;;7.37;80.97;97346.14;108606;1253;94436;-72
2023/12/25 04:20:02;;;;;;;4.10;1.80;;;;;;;7.41;80.80;97344.87;108546;1254;94749;-73
2023/12/25 04:22:30;;;;;;;4.50;2.20;;;;;;;7.43;80.80;97347.72;108607;1253;109590;-72
2023/12/25 04:24:58;;;;;;;3.40;2.10;;;;;;;7.47;80.83;97345.67;108730;1252;94255;-73
2023/12/25 04:27:26;;;;;;;3.10;1.40;;;;;;;7.55;81.14;97346.02;108743;1253;107171;-73
2023/12/25 04:29:54;;;;;;;2.20;1.40;;;;;;;7.69;81.35;97352.72;108644;1253;95119;-73
2023/12/25 04:32:22;;;;;;;3.00;1.20;;;;;;;7.84;81.35;97351.73;108690;1253;94558;-73
2023/12/25 04:34:49;;;;;;;1.40;1.10;;;;;;;7.99;81.41;97357.64;108757;1253;108972;-72
2023/12/25 04:37:19;;;;;;;1.10;1.00;;;;;;;8.18;81.53;97357.55;108735;1253;95503;-73
2023/12/25 04:39:47;;;;;;;1.90;0.90;;;;;;;8.33;81.46;97360.77;108755;1252;107632;-72
2023/12/25 04:42:15;;;;;;;1.30;0.80;;;;;;;8.47;81.40;97352.82;108760;1253;94227;-73
2023/12/25 04:44:43;;;;;;;1.50;0.80;;;;;;;8.58;81.29;97353.25;108702;1253;94712;-73
2023/12/25 04:47:11;;;;;;;1.40;0.90;;;;;;;8.66;81.20;97355.16;108763;1254;110025;-70
2023/12/25 04:49:39;;;;;;;1.60;0.90;;;;;;;8.75;81.22;97359.52;108705;1253;94648;-70
2023/12/25 04:52:07;;;;;;;3.90;1.40;;;;;;;8.83;81.26;97361.77;108711;1254;107140;-71
2023/12/25 04:54:35;;;;;;;5.00;1.30;;;;;;;8.90;81.09;97367.09;108701;1252;94472;-71
2023/12/25 04:57:03;;;;;;;1.90;0.90;;;;;;;9.00;81.25;97376.30;108708;1253;94267;-70
2023/12/25 04:59:31;;;;;;;3.00;1.20;;;;;;;9.13;81.37;97367.52;108758;1254;110095;-71
2023/12/25 05:02:00;;;;;;;1.90;0.90;;;;;;;9.22;81.15;97374.73;108735;1253;95980;-70
2023/12/25 05:04:28;;;;;;;3.10;1.40;;;;;;;9.31;81.17;97377.67;108688;1253;107293;-70
2023/12/25 05:06:56;;;;;;;2.10;0.80;;;;;;;9.37;81.20;97385.38;108689;1253;94425;-70
2023/12/25 05:09:24;;;;;;;1.90;1.10;;;;;;;9.45;81.19;97389.92;108655;1254;94571;-70
2023/12/25 05:11:51;;;;;;;1.80;1.00;;;;;;;9.53;81.13;97396.66;108705;1252;109921;-71
2023/12/25 05:14:19;;;;;;;2.70;1.20;;;;;;;9.62;81.12;97400.77;108716;1253;95286;-71
2023/12/25 05:16:47;;;;;;;3.50;1.00;;;;;;;9.66;80.87;97396.44;108719;1253;107742;-70
2023/12/25 05:19:15;;;;;;;1.90;1.20;;;;;;;9.66;80.93;97408.28;108659;1254;94911;-71
2023/12/25 05:21:43;;;;;;;3.30;1.90;;;;;;;9.71;80.93;97409.10;108712;1253;94302;-70
2023/12/25 05:24:11;;;;;;;6.60;1.70;;;;;;;9.74;80.80;97415.67;108721;1252;110031;-71
2023/12/25 05:26:39;;;;;;;4.60;1.90;;;;;;;9.76;80.64;97428.14;108742;1254;94543;-72
2023/12/25 05:29:07;;;;;;;3.90;1.80;;;;;;;9.77;80.72;97429.09;108568;1253;107651;-71
2023/12/25 05:31:35;;;;;;;2.90;1.60;;;;;;;9.77;80.59;97439.73;108613;1254;94395;-71
2023/12/25 05:34:03;;;;;;;3.50;1.40;;;;;;;9.76;80.34;97448.85;108675;1254;94245;-71
2023/12/25 05:36:31;;;;;;;4.00;1.50;;;;;;;9.76;80.48;97452.15;108725;1253;109891;-71
2023/12/25 05:38:59;;;;;;;4.60;2.10;;;;;;;9.74;80.38;97444.92;108673;1253;94854;-71
2023/12/25 05:41:41;;;;;;;4.70;2.20;;;;;;;9.71;80.26;97449.12;108558;1254;107527;-70
2023/12/25 05:44:09;;;;;;;2.70;1.90;;;;;;;9.68;80.17;97461.96;108658;1253;95110;-71
2023/12/25 05:46:37;;;;;;;4.80;1.90;;;;;;;9.64;80.11;97456.24;108619;1254;94256;-71
2023/12/25 05:49:05;;;;;;;2.20;1.60;;;;;;;9.62;80.11;97456.34;108669;1253;109717;-71
2023/12/25 05:51:33;;;;;;;1.90;1.40;;;;;;;9.56;80.01;97468.17;108640;1253;94556;-70
2023/12/25 05:54:01;;;;;;;2.30;1.30;;;;;;;9.53;79.95;97471.31;108590;1252;107333;-71
2023/12/25 05:56:29;;;;;;;3.00;1.60;;;;;;;9.47;79.99;97472.36;108584;1252;94584;-71
2023/12/25 05:58:58;;;;;;;3.40;1.50;;;;;;;9.44;79.99;97474.95;108755;1252;95350;-71
2023/12/25 06:01:26;;;;;;;1.90;1.20;;;;;;;9.44;80.05;97475.50;108654;1252;110035;-71
2023/12/25 06:03:54;;;;;;;3.00;1.40;;;;;;;9.43;79.94;97479.86;108673;1253;96032;-71
2023/12/25 06:06:22;;;;;;;1.70;0.90;;;;;;;9.41;79.97;97489.06;108615;1253;107223;-71
2023/12/25 06:08:50;;;;;;;2.30;1.20;;;;;;;9.41;79.97;97498.75;108588;1253;94530;-70
2023/12/25 06:11:18;;;;;;;3.00;1.20;;;;;;;9.44;79.96;97495.31;108656;1254;94201;-71
2023/12/25 06:13:46;;;;;;;3.60;1.30;;;;;;;9.44;79.98;97496.77;108652;1254;109715;-70
2023/12/25 06:16:15;;;;;;;3.50;1.40;;;;;;;9.43;79.88;97504.27;108646;1254;95500;-70
2023/12/25 06:18:42;;;;;;;3.40;1.10;;;;;;;9.42;79.91;97494.77;108699;1252;107532;-71
2023/12/25 06:21:14;;;;;;;1.30;1.20;;;;;;;9.43;79.89;97498.29;108601;1254;94471;-81
2023/12/25 06:23:43;;;;;;;3.30;1.40;;;;;;;9.44;79.94;97508.46;108636;1254;94643;-80
2023/12/25 06:26:11;;;;;;;1.90;1.20;;;;;;;9.47;79.90;97511.54;108634;1253;108816;-80
2023/12/25 06:28:43;;;;;;;1.70;1.20;;;;;;;9.52;79.83;97508.53;108691;1252;94307;-79
2023/12/25 06:31:11;;;;;;;1.60;1.20;;;;;;;9.53;79.83;97510.41;108681;1253;107300;-80
2023/12/25 06:33:39;;;;;;;3.10;2.00;;;;;;;9.52;79.83;97511.69;108601;1253;94564;-80
2023/12/25 06:36:07;;;;;;;2.70;1.60;;;;;;;9.51;79.72;97516.24;108743;1252;94303;-81
2023/12/25 06:38:37;;;;;;;3.60;1.70;;;;;;;9.49;79.68;97519.77;108619;1252;109902;-81
2023/12/25 06:41:05;;;;;;;2.50;1.30;;;;;;;9.49;79.79;97522.32;108706;1252;95477;-80
2023/12/25 06:43:33;;;;;;;4.30;1.80;;;;;;;9.49;79.73;97519.41;108583;1252;106588;-80
2023/12/25 06:46:01;;;;;;;8.30;3.10;;;;;;;9.49;79.66;97528.44;108707;1252;94252;-81
2023/12/25 06:48:33;;;;;;;12.40;3.20;;;;;;;9.51;79.74;97541.39;108652;1252;94372;-80
2023/12/25 06:51:01;;;;;;;5.30;2.20;;;;;;;9.52;79.67;97544.77;108670;1252;108966;-80
2023/12/25 06:53:29;;;;;;;3.50;1.50;;;;;;;9.52;79.77;97543.38;108556;1252;94570;-81
2023/12/25 06:55:57;;;;;;;3.50;1.70;;;;;;;9.49;79.62;97547.55;108667;1253;107411;-80
2023/12/25 06:58:25;;;;;;;2.40;1.80;;;;;;;9.45;79.61;97540.03;108696;1252;94665;-80
2023/12/25 07:00:54;;;;;;;1.80;1.40;;;;;;;9.40;79.57;97550.00;108659;1253;94232;-81
2023/12/25 07:03:22;;;;;;;4.90;2.60;;;;;;;9.36;79.67;97555.45;108699;1252;110070;-80
2023/12/25 07:05:50;;;;;;;7.40;2.30;;;;;;;9.35;79.73;97556.34;108708;1252;95597;-77
2023/12/25 07:08:18;;;;;;;23.50;11.40;;;;;;;9.33;79.61;97550.30;108585;1252;108696;-76
2023/12/25 07:10:46;;;;;;;25.10;13.10;;;;;;;9.31;79.66;97551.20;108655;1252;94236;-77
2023/12/25 07:13:15;;;;;;;16.30;6.70;;;;;;;9.30;79.62;97552.84;108690;1253;94269;-83
2023/12/25 07:15:46;;;;;;;17.20;7.30;;;;;;;9.30;79.70;97553.02;108653;1252;109806;-83
2023/12/25 07:18:14;;;;;;;14.20;6.30;;;;;;;9.31;79.67;97552.79;108644;1252;95583;-82
2023/12/25 07:20:43;;;;;;;11.10;4.90;;;;;;;9.32;79.69;97556.25;108647;1254;106990;-82
2023/12/25 07:23:14;;;;;;;8.70;3.70;;;;;;;9.33;79.74;97554.33;108700;1253;94303;-82
2023/12/25 07:25:41;;;;;;;7.10;3.20;;;;;;;9.33;79.67;97556.69;108680;1252;94629;-82
2023/12/25 07:28:12;;;;;;;5.30;2.30;;;;;;;9.32;79.70;97553.38;108658;1252;110881;-82
2023/12/25 07:30:43;;;;;;;5.60;2.50;;;;;;;9.33;79.71;97559.33;108607;1252;96762;-82
2023/12/25 07:33:11;;;;;;;15.90;6.10;;;;;;;9.35;79.75;97566.76;108638;1252;107786;-82
2023/12/25 07:35:39;;;;;;;8.90;4.10;;;;;;;9.37;79.66;97561.80;108648;1252;94833;-82
2023/12/25 07:38:07;;;;;;;8.90;3.60;;;;;;;9.38;79.71;97558.81;108715;1252;94995;-81
2023/12/25 07:40:35;;;;;;;10.50;4.50;;;;;;;9.41;79.69;97557.55;108677;1252;110023;-80
2023/12/25 07:43:09;;;;;;;7.60;2.80;;;;;;;9.43;79.76;97553.98;108679;1252;95666;-78
2023/12/25 07:45:38;;;;;;;9.60;4.10;;;;;;;9.46;79.73;97548.42;108629;1252;107713;-79
2023/12/25 07:48:06;;;;;;;10.80;4.40;;;;;;;9.50;79.77;97548.02;108617;1252;94318;-82
2023/12/25 07:50:36;;;;;;;9.00;4.60;;;;;;;9.54;79.72;97547.68;108573;1253;94694;-81
2023/12/25 07:53:04;;;;;;;11.00;4.50;;;;;;;9.58;79.73;97554.40;108669;1252;109645;-80
2023/12/25 07:55:36;;;;;;;5.90;2.50;;;;;;;9.63;79.71;97555.50;108662;1254;94431;-80
2023/12/25 07:58:17;;;;;;;;;;;;;;;;;;;;;
2023/12/25 08:00:45;;;;;;;4.80;2.50;;;;;;;9.70;79.68;97541.30;108595;1252;94298;-81
2023/12/25 08:03:13;;;;;;;5.40;2.50;;;;;;;9.72;79.61;97544.03;108647;1252;94268;-81
2023/12/25 08:05:47;;;;;;;8.00;2.90;;;;;;;9.74;79.53;97549.50;108547;1255;109413;-82
2023/12/25 08:08:15;;;;;;;11.40;3.70;;;;;;;9.77;79.55;97545.36;108686;1252;94973;-81
2023/12/25 08:10:43;;;;;;;6.70;2.60;;;;;;;9.80;79.45;97551.96;108570;1252;107744;-81
2023/12/25 08:13:17;;;;;;;8.00;3.30;;;;;;;9.83;79.57;97544.77;108661;1254;94695;-82
2023/12/25 08:15:45;;;;;;;7.60;3.00;;;;;;;9.89;79.55;97545.16;108636;1252;94554;-81
2023/12/25 08:18:20;;;;;;;7.30;2.60;;;;;;;9.95;79.64;97538.90;108632;1252;109987;-80
2023/12/25 08:20:49;;;;;;;4.40;2.10;;;;;;;10.04;79.51;97548.17;108592;1252;94320;-81
2023/12/25 08:23:21;;;;;;;3.10;1.80;;;;;;;10.10;79.46;97545.46;108591;1253;107216;-81
2023/12/25 08:25:51;;;;;;;5.30;2.40;;;;;;;10.13;79.47;97543.41;108681;1252;94663;-82
2023/12/25 08:28:20;;;;;;;16.00;6.60;;;;;;;10.15;79.33;97545.36;108692;1252;94221;-81
2023/12/25 08:30:49;;;;;;;4.30;2.50;;;;;;;10.17;79.41;97552.05;108636;1252;110558;-81
2023/12/25 08:33:22;;;;;;;5.50;2.60;;;;;;;10.21;79.21;97553.25;108631;1252;94246;-81
2023/12/25 08:35:52;;;;;;;4.70;2.40;;;;;;;10.25;79.25;97558.77;108679;1252;107225;-81
2023/12/25 08:38:30;;;;;;;8.00;3.60;;;;;;;10.28;79.18;97564.36;108610;1252;94260;-81
2023/12/25 08:41:01;;;;;;;7.20;3.50;;;;;;;10.28;79.15;97567.99;108648;1252;94289;-82
2023/12/25 08:43:31;;;;;;;6.70;3.40;;;;;;;10.28;78.99;97569.95;108583;1254;112115;-81
2023/12/25 08:45:59;;;;;;;5.30;3.20;;;;;;;10.30;79.00;97575.34;108727;1252;95171;-80
2023/12/25 08:48:27;;;;;;;6.70;2.70;;;;;;;10.31;79.00;97575.95;108658;1252;107705;-82
2023/12/25 08:50:57;;;;;;;6.80;2.90;;;;;;;10.33;79.01;97579.27;108619;1253;94281;-79
2023/12/25 08:53:25;;;;;;;8.10;4.00;;;;;;;10.34;78.90;97573.37;108651;1253;94520;-80
2023/12/25 08:55:53;;;;;;;5.00;2.30;;;;;;;10.37;79.04;97581.22;108656;1254;110046;-79
2023/12/25 08:58:29;;;;;;;5.40;2.50;;;;;;;10.41;78.85;97587.58;108645;1254;95576;-77
2023/12/25 09:00:57;;;;;;;6.40;2.60;;;;;;;10.43;79.05;97589.86;108573;1252;107504;-81
2023/12/25 09:03:24;;;;;;;7.80;3.00;;;;;;;10.45;78.83;97591.95;108694;1254;94266;-78
2023/12/25 09:05:55;;;;;;;4.40;2.20;;;;;;;10.47;78.75;97591.77;108635;1254;94345;-84
2023/12/25 09:08:25;;;;;;;4.40;2.30;;;;;;;10.50;78.77;97590.08;108574;1253;109008;-79
2023/12/25 09:10:53;;;;;;;5.70;2.70;;;;;;;10.53;78.77;97581.25;108637;1252;95340;-76
2023/12/25 09:13:20;;;;;;;7.10;3.10;;;;;;;10.55;78.68;97590.26;108612;1252;107485;-75
2023/12/25 09:15:48;;;;;;;5.50;3.10;;;;;;;10.59;78.58;97588.16;108602;1252;94543;-76
2023/12/25 09:18:16;;;;;;;6.80;3.00;;;;;;;10.64;78.26;97592.98;108604;1252;94529;-76
2023/12/25 09:20:44;;;;;;;4.10;2.40;;;;;;;10.69;78.56;97589.36;108542;1254;109915;-78
2023/12/25 09:23:12;;;;;;;6.20;2.90;;;;;;;10.73;78.28;97580.27;108624;1253;94585;-75
2023/12/25 09:25:40;;;;;;;27.40;12.80;;;;;;;10.77;78.34;97585.58;108693;1253;106716;-76
2023/12/25 09:28:08;;;;;;;11.90;5.20;;;;;;;10.82;78.31;97588.30;108704;1252;94675;-82
2023/12/25 09:30:36;;;;;;;5.20;2.80;;;;;;;10.86;78.27;97586.65;108717;1252;94844;-76
2023/12/25 09:33:04;;;;;;;6.60;2.90;;;;;;;10.91;78.44;97580.52;108695;1252;109984;-77
2023/12/25 09:35:32;;;;;;;5.60;2.80;;;;;;;10.96;78.26;97581.78;108704;1252;95065;-78
2023/12/25 09:38:03;;;;;;;9.70;3.60;;;;;;;10.99;78.10;97577.05;108662;1252;106788;-78
2023/12/25 09:40:33;;;;;;;21.40;8.60;;;;;;;11.02;78.26;97577.61;108539;1252;94460;-75
2023/12/25 09:43:01;;;;;;;27.40;11.50;;;;;;;11.04;78.00;97572.87;108651;1252;94266;-74
2023/12/25 09:45:36;;;;;;;23.10;8.90;;;;;;;11.04;77.66;97576.52;108690;1252;109393;-75
2023/12/25 09:48:09;;;;;;;9.00;3.90;;;;;;;11.06;77.75;97573.19;108698;1253;94521;-78
2023/12/25 09:50:39;;;;;;;13.20;4.60;;;;;;;11.10;77.81;97575.12;108667;1252;107746;-84
2023/12/25 09:53:07;;;;;;;14.40;5.70;;;;;;;11.11;77.80;97569.95;108602;1254;94631;-74
2023/12/25 09:55:36;;;;;;;11.40;5.50;;;;;;;11.13;77.73;97567.84;108634;1252;94292;-75
2023/12/25 09:58:06;;;;;;;14.20;6.70;;;;;;;11.14;77.60;97563.09;108744;1252;110623;-73
2023/12/25 10:00:34;;;;;;;19.40;8.60;;;;;;;11.19;77.52;97564.48;108740;1252;94305;-78
2023/12/25 10:03:03;;;;;;;16.00;6.90;;;;;;;11.24;77.65;97563.27;108642;1252;108564;-77
2023/12/25 10:05:32;;;;;;;12.90;5.60;;;;;;;11.30;77.61;97566.36;108627;1254;94337;-76
2023/12/25 10:08:00;;;;;;;10.20;4.60;;;;;;;11.34;77.63;97568.31;108691;1252;94251;-74
2023/12/25 10:10:31;;;;;;;17.50;6.50;;;;;;;11.37;77.29;97569.98;108566;1253;109051;-73
2023/12/25 10:13:01;;;;;;;13.60;5.60;;;;;;;11.39;77.40;97573.98;108600;1252;94351;-73
2023/12/25 10:15:30;;;;;;;13.70;4.70;;;;;;;11.41;77.21;97576.59;108614;1253;106640;-74
2023/12/25 10:18:03;;;;;;;14.00;5.20;;;;;;;11.43;76.95;97571.08;108610;1252;94357;-77
2023/12/25 10:20:31;;;;;;;14.50;4.90;;;;;;;11.43;77.06;97572.11;108624;1252;94376;-77
2023/12/25 10:23:00;;;;;;;11.60;4.20;;;;;;;11.44;76.89;97579.74;108687;1252;110100;-75
2023/12/25 10:25:44;;;;;;;15.30;5.10;;;;;;;11.44;77.05;97572.23;108538;1255;94523;-76
2023/12/25 10:28:12;;;;;;;21.40;8.20;;;;;;;11.44;76.83;97571.89;108655;1252;109637;-76
2023/12/25 10:30:40;;;;;;;21.00;8.30;;;;;;;11.44;76.69;97569.27;108621;1253;94565;-75
2023/12/25 10:33:10;;;;;;;11.00;4.40;;;;;;;11.44;76.51;97571.66;108653;1252;94723;-74
2023/12/25 10:35:39;;;;;;;11.00;4.20;;;;;;;11.46;76.54;97567.27;108588;1252;110179;-74
2023/12/25 10:38:20;;;;;;;13.80;4.70;;;;;;;11.50;76.52;97572.20;108537;1252;95238;-74
2023/12/25 10:40:48;;;;;;;9.80;4.20;;;;;;;11.53;76.29;97572.27;108551;1252;107085;-78
2023/12/25 10:43:18;;;;;;;11.20;4.20;;;;;;;11.56;76.17;97569.63;108575;1252;94740;-77
2023/12/25 10:45:52;;;;;;;19.70;7.40;;;;;;;11.61;76.17;97566.96;108708;1252;94531;-78
2023/12/25 10:48:23;;;;;;;14.00;5.10;;;;;;;11.66;76.21;97571.32;108552;1252;109886;-78
2023/12/25 10:50:52;;;;;;;14.20;5.60;;;;;;;11.69;75.93;97575.27;108561;1253;97073;-76
2023/12/25 10:53:20;;;;;;;15.60;5.70;;;;;;;11.72;75.83;97565.17;108661;1254;107762;-78
2023/12/25 10:55:49;;;;;;;6.50;3.30;;;;;;;11.73;75.76;97557.77;108665;1252;94613;-76
2023/12/25 10:58:19;;;;;;;10.20;3.60;;;;;;;11.75;75.75;97565.23;108641;1252;94591;-76
2023/12/25 11:03:34;;;;;;;11.70;4.30;;;;;;;11.77;75.44;97561.09;102053;1292;636947;-75
2023/12/25 11:06:04;;;;;;;18.40;6.20;;;;;;;11.76;75.43;97565.18;104625;1271;94278;-77
2023/12/25 11:08:33;;;;;;;11.40;4.80;;;;;;;11.74;75.52;97560.94;104491;1272;94371;-78
2023/12/25 11:11:05;;;;;;;16.10;6.00;;;;;;;11.72;75.33;97558.22;104364;1271;107269;-75
2023/12/25 11:13:33;;;;;;;12.70;4.50;;;;;;;11.71;75.26;97562.11;104452;1271;94502;-76
2023/12/25 11:16:01;;;;;;;20.40;7.20;;;;;;;11.71;75.13;97564.27;104739;1280;107074;-75
2023/12/25 11:18:29;;;;;;;13.40;4.60;;;;;;;11.71;75.02;97564.07;104711;1269;94831;-75
2023/12/25 11:21:08;;;;;;;12.00;4.70;;;;;;;11.71;74.81;97562.23;104727;1271;94261;-75
2023/12/25 11:23:40;;;;;;;8.60;3.30;;;;;;;11.74;74.41;97559.70;104599;1277;107239;-75
2023/12/25 11:26:12;;;;;;;9.30;4.00;;;;;;;11.74;74.53;97558.21;104723;1269;95475;-76
2023/12/25 11:28:55;;;;;;;11.00;4.20;;;;;;;11.75;74.49;97567.96;104750;1281;107165;-77
2023/12/25 11:31:23;;;;;;;10.30;3.50;;;;;;;11.74;74.51;97575.48;104521;1268;95268;-73
2023/12/25 11:33:51;;;;;;;5.30;2.50;;;;;;;11.74;74.50;97574.58;104645;1269;95235;-74
2023/12/25 11:36:21;;;;;;;7.20;2.90;;;;;;;11.75;74.29;97572.16;104804;1277;107691;-77